createdAt,value
2023-05-21T00:00:17.971Z,21.21
2023-05-21T00:01:16.752Z,21.20
2023-05-21T00:02:16.971Z,21.22
2023-05-21T00:03:17.212Z,21.21
2023-05-21T00:04:18.013Z,21.21
2023-05-21T00:05:18.048Z,21.22
2023-05-21T00:06:18.230Z,21.18
2023-05-21T00:07:18.212Z,21.17
2023-05-21T00:08:17.293Z,21.20
2023-05-21T00:09:17.450Z,21.20
2023-05-21T00:10:18.471Z,21.17
2023-05-21T00:11:18.584Z,21.21
2023-05-21T00:12:17.566Z,21.18
2023-05-21T00:13:17.463Z,21.18
2023-05-21T00:14:18.590Z,21.20
2023-05-21T00:15:18.622Z,21.15
2023-05-21T00:16:19.047Z,21.17
2023-05-21T00:17:17.669Z,21.17
2023-05-21T00:18:18.802Z,21.18
2023-05-21T00:19:17.833Z,21.18
2023-05-21T00:20:17.807Z,21.15
2023-05-21T00:21:17.823Z,21.17
2023-05-21T00:22:17.818Z,21.18
2023-05-21T00:23:18.910Z,21.17
2023-05-21T00:24:18.977Z,21.14
2023-05-21T00:25:17.971Z,21.14
2023-05-21T00:26:18.083Z,21.13
2023-05-21T00:27:19.054Z,21.14
2023-05-21T00:28:19.159Z,21.13
2023-05-21T00:29:19.306Z,21.13
2023-05-21T00:30:18.328Z,21.13
2023-05-21T00:31:18.448Z,21.13
2023-05-21T00:32:19.261Z,21.14
2023-05-21T00:33:18.538Z,21.15
2023-05-21T00:34:18.339Z,21.15
2023-05-21T00:35:19.426Z,21.13
2023-05-21T00:36:19.433Z,21.14
2023-05-21T00:37:19.471Z,21.13
2023-05-21T00:38:18.775Z,21.14
2023-05-21T00:39:19.550Z,21.13
2023-05-21T00:40:19.765Z,21.13
2023-05-21T00:41:19.628Z,21.13
2023-05-21T00:42:18.595Z,21.11
2023-05-21T00:43:19.752Z,21.14
2023-05-21T00:44:19.888Z,21.15
2023-05-21T00:45:18.826Z,21.10
2023-05-21T00:46:20.055Z,21.13
2023-05-21T00:47:19.740Z,21.10
2023-05-21T00:48:18.826Z,21.10
2023-05-21T00:49:19.801Z,21.15
2023-05-21T00:50:18.700Z,21.13
2023-05-21T00:51:18.902Z,21.13
2023-05-21T00:52:18.673Z,21.11
2023-05-21T00:53:18.922Z,21.08
2023-05-21T00:54:18.806Z,21.08
2023-05-21T00:55:19.697Z,21.10
2023-05-21T00:56:18.815Z,21.08
2023-05-21T00:57:18.863Z,21.10
2023-05-21T00:58:19.874Z,21.05
2023-05-21T00:59:19.751Z,21.11
2023-05-21T01:00:18.709Z,21.07
2023-05-21T01:01:19.752Z,21.05
2023-05-21T01:02:18.941Z,21.08
2023-05-21T01:03:19.768Z,21.08
2023-05-21T01:04:18.876Z,21.08
2023-05-21T01:05:19.704Z,21.05
2023-05-21T01:06:19.671Z,21.07
2023-05-21T01:07:19.933Z,21.10
2023-05-21T01:08:18.671Z,21.11
2023-05-21T01:09:18.655Z,21.08
2023-05-21T01:10:18.903Z,21.10
2023-05-21T01:11:19.986Z,21.07
2023-05-21T01:12:19.824Z,21.07
2023-05-21T01:13:19.833Z,21.05
2023-05-21T01:14:18.836Z,21.08
2023-05-21T01:15:18.873Z,21.04
2023-05-21T01:16:18.891Z,21.08
2023-05-21T01:17:18.832Z,21.05
2023-05-21T01:18:18.858Z,21.04
2023-05-21T01:19:19.002Z,21.04
2023-05-21T01:20:18.803Z,21.05
2023-05-21T01:21:19.972Z,21.04
2023-05-21T01:22:19.029Z,21.05
2023-05-21T01:23:19.033Z,21.05
2023-05-21T01:24:19.051Z,21.04
2023-05-21T01:25:18.897Z,21.04
2023-05-21T01:26:18.867Z,21.01
2023-05-21T01:27:20.104Z,21.03
2023-05-21T01:28:18.883Z,21.05
2023-05-21T01:29:19.013Z,21.07
2023-05-21T01:30:18.868Z,21.03
2023-05-21T01:31:19.866Z,21.05
2023-05-21T01:32:18.955Z,21.04
2023-05-21T01:33:20.223Z,21.04
2023-05-21T01:34:19.120Z,21.05
2023-05-21T01:35:19.891Z,21.05
2023-05-21T01:36:18.880Z,21.01
2023-05-21T01:37:19.958Z,21.05
2023-05-21T01:38:18.971Z,21.01
2023-05-21T01:39:19.933Z,21.03
2023-05-21T01:40:18.868Z,21.03
2023-05-21T01:41:18.866Z,21.03
2023-05-21T01:42:18.910Z,21.01
2023-05-21T01:43:18.906Z,21.01
2023-05-21T01:44:19.043Z,21.01
2023-05-21T01:45:18.867Z,20.98
2023-05-21T01:46:20.146Z,21.01
2023-05-21T01:47:19.928Z,21.01
2023-05-21T01:48:20.031Z,21.00
2023-05-21T01:49:19.915Z,21.03
2023-05-21T01:50:19.859Z,21.00
2023-05-21T01:51:19.864Z,21.00
2023-05-21T01:52:19.869Z,21.01
2023-05-21T01:53:19.870Z,20.98
2023-05-21T01:54:19.933Z,21.04
2023-05-21T01:55:19.877Z,21.03
2023-05-21T01:56:18.943Z,21.00
2023-05-21T01:57:19.028Z,21.03
2023-05-21T01:58:18.928Z,21.01
2023-05-21T01:59:19.975Z,21.01
2023-05-21T02:00:18.936Z,21.03
2023-05-21T02:01:18.988Z,21.01
2023-05-21T02:02:20.026Z,21.01
2023-05-21T02:03:19.090Z,20.98
2023-05-21T02:04:19.049Z,21.01
2023-05-21T02:05:18.946Z,21.00
2023-05-21T02:06:20.042Z,20.97
2023-05-21T02:07:19.967Z,20.98
2023-05-21T02:08:18.921Z,20.97
2023-05-21T02:09:19.927Z,20.95
2023-05-21T02:10:19.949Z,20.97
2023-05-21T02:11:19.010Z,20.98
2023-05-21T02:12:20.161Z,20.97
2023-05-21T02:13:18.968Z,20.97
2023-05-21T02:14:18.972Z,20.97
2023-05-21T02:15:20.074Z,20.97
2023-05-21T02:16:20.062Z,20.97
2023-05-21T02:17:19.993Z,20.94
2023-05-21T02:18:19.023Z,20.95
2023-05-21T02:19:20.256Z,20.94
2023-05-21T02:20:19.017Z,20.98
2023-05-21T02:21:18.991Z,20.95
2023-05-21T02:22:18.982Z,21.00
2023-05-21T02:23:19.981Z,20.97
2023-05-21T02:24:19.043Z,20.95
2023-05-21T02:25:20.006Z,20.97
2023-05-21T02:26:18.989Z,20.95
2023-05-21T02:27:20.225Z,20.95
2023-05-21T02:28:19.988Z,20.94
2023-05-21T02:29:20.105Z,20.91
2023-05-21T02:30:18.966Z,20.95
2023-05-21T02:31:20.009Z,20.91
2023-05-21T02:32:20.211Z,20.95
2023-05-21T02:33:19.117Z,20.91
2023-05-21T02:34:18.962Z,20.94
2023-05-21T02:35:19.038Z,20.91
2023-05-21T02:36:20.117Z,20.94
2023-05-21T02:37:19.152Z,20.91
2023-05-21T02:38:19.113Z,20.94
2023-05-21T02:39:18.985Z,20.90
2023-05-21T02:40:20.061Z,20.95
2023-05-21T02:41:20.082Z,20.93
2023-05-21T02:42:18.957Z,20.93
2023-05-21T02:43:19.006Z,20.95
2023-05-21T02:44:18.929Z,20.91
2023-05-21T02:45:19.956Z,20.91
2023-05-21T02:46:20.095Z,20.93
2023-05-21T02:47:18.937Z,20.91
2023-05-21T02:48:18.983Z,20.93
2023-05-21T02:49:19.072Z,20.91
2023-05-21T02:50:19.939Z,20.93
2023-05-21T02:51:18.998Z,20.93
2023-05-21T02:52:19.114Z,20.89
2023-05-21T02:53:19.136Z,20.89
2023-05-21T02:54:19.876Z,20.91
2023-05-21T02:55:18.928Z,20.89
2023-05-21T02:56:18.985Z,20.91
2023-05-21T02:57:18.976Z,20.86
2023-05-21T02:58:19.185Z,20.91
2023-05-21T02:59:19.873Z,20.93
2023-05-21T03:00:18.851Z,20.90
2023-05-21T03:01:19.059Z,20.90
2023-05-21T03:02:20.243Z,20.93
2023-05-21T03:03:19.203Z,20.94
2023-05-21T03:04:18.973Z,20.91
2023-05-21T03:05:19.005Z,20.91
2023-05-21T03:06:18.949Z,20.89
2023-05-21T03:07:19.090Z,20.89
2023-05-21T03:08:19.082Z,20.86
2023-05-21T03:09:20.083Z,20.87
2023-05-21T03:10:20.022Z,20.87
2023-05-21T03:11:19.900Z,20.87
2023-05-21T03:12:19.906Z,20.87
2023-05-21T03:13:20.001Z,20.87
2023-05-21T03:14:19.983Z,20.87
2023-05-21T03:15:18.910Z,20.90
2023-05-21T03:16:20.100Z,20.87
2023-05-21T03:17:19.934Z,20.87
2023-05-21T03:18:20.060Z,20.87
2023-05-21T03:19:18.994Z,20.87
2023-05-21T03:20:19.033Z,20.87
2023-05-21T03:21:19.001Z,20.89
2023-05-21T03:22:20.135Z,20.86
2023-05-21T03:23:20.185Z,20.89
2023-05-21T03:24:18.958Z,20.86
2023-05-21T03:25:19.094Z,20.87
2023-05-21T03:26:19.001Z,20.86
2023-05-21T03:27:19.988Z,20.86
2023-05-21T03:28:20.123Z,20.86
2023-05-21T03:29:19.139Z,20.87
2023-05-21T03:30:20.020Z,20.86
2023-05-21T03:31:19.260Z,20.84
2023-05-21T03:32:20.355Z,20.86
2023-05-21T03:33:20.161Z,20.89
2023-05-21T03:34:19.279Z,20.87
2023-05-21T03:35:20.119Z,20.84
2023-05-21T03:36:19.159Z,20.84
2023-05-21T03:37:20.170Z,20.84
2023-05-21T03:38:19.122Z,20.83
2023-05-21T03:39:19.129Z,20.86
2023-05-21T03:40:20.136Z,20.80
2023-05-21T03:41:19.208Z,20.83
2023-05-21T03:42:20.384Z,20.84
2023-05-21T03:43:20.186Z,20.84
2023-05-21T03:44:19.337Z,20.84
2023-05-21T03:45:19.351Z,20.86
2023-05-21T03:46:19.333Z,20.86
2023-05-21T03:47:20.273Z,20.86
2023-05-21T03:48:20.326Z,20.86
2023-05-21T03:49:19.339Z,20.83
2023-05-21T03:50:19.248Z,20.83
2023-05-21T03:51:19.280Z,20.84
2023-05-21T03:52:19.298Z,20.84
2023-05-21T03:53:19.315Z,20.83
2023-05-21T03:54:19.298Z,20.84
2023-05-21T03:55:19.334Z,20.83
2023-05-21T03:56:20.482Z,20.80
2023-05-21T03:57:19.556Z,20.84
2023-05-21T03:58:19.356Z,20.82
2023-05-21T03:59:19.591Z,20.82
2023-05-21T04:00:19.390Z,20.83
2023-05-21T04:01:19.392Z,20.82
2023-05-21T04:02:19.469Z,20.83
2023-05-21T04:03:20.511Z,20.82
2023-05-21T04:04:19.685Z,20.80
2023-05-21T04:05:19.469Z,20.77
2023-05-21T04:06:19.600Z,20.82
2023-05-21T04:07:20.540Z,20.82
2023-05-21T04:08:20.513Z,20.80
2023-05-21T04:09:19.536Z,20.80
2023-05-21T04:10:20.539Z,20.83
2023-05-21T04:11:19.714Z,20.82
2023-05-21T04:12:19.560Z,20.82
2023-05-21T04:13:21.002Z,20.80
2023-05-21T04:14:20.655Z,20.82
2023-05-21T04:15:20.758Z,20.82
2023-05-21T04:16:19.695Z,20.76
2023-05-21T04:17:19.664Z,20.82
2023-05-21T04:18:19.743Z,20.79
2023-05-21T04:19:19.780Z,20.77
2023-05-21T04:20:20.680Z,20.82
2023-05-21T04:21:19.889Z,20.80
2023-05-21T04:22:19.753Z,20.79
2023-05-21T04:23:19.809Z,20.77
2023-05-21T04:24:20.952Z,20.82
2023-05-21T04:25:19.757Z,20.77
2023-05-21T04:26:19.918Z,20.79
2023-05-21T04:27:19.827Z,20.77
2023-05-21T04:28:20.467Z,20.80
2023-05-21T04:29:19.947Z,20.76
2023-05-21T04:30:19.815Z,20.79
2023-05-21T04:31:20.861Z,20.80
2023-05-21T04:32:20.949Z,20.77
2023-05-21T04:33:19.945Z,20.79
2023-05-21T04:34:20.861Z,20.79
2023-05-21T04:35:20.054Z,20.79
2023-05-21T04:36:20.917Z,20.80
2023-05-21T04:37:19.999Z,20.80
2023-05-21T04:38:21.049Z,20.80
2023-05-21T04:39:21.072Z,20.79
2023-05-21T04:40:20.071Z,20.80
2023-05-21T04:41:20.229Z,20.79
2023-05-21T04:42:21.077Z,20.79
2023-05-21T04:43:21.004Z,20.77
2023-05-21T04:44:20.010Z,20.76
2023-05-21T04:45:20.077Z,20.76
2023-05-21T04:46:20.148Z,20.80
2023-05-21T04:47:20.261Z,20.80
2023-05-21T04:48:20.069Z,20.76
2023-05-21T04:49:21.138Z,20.80
2023-05-21T04:50:21.314Z,20.74
2023-05-21T04:51:21.329Z,20.79
2023-05-21T04:52:20.215Z,20.77
2023-05-21T04:53:21.168Z,20.79
2023-05-21T04:54:20.279Z,20.79
2023-05-21T04:55:20.211Z,20.79
2023-05-21T04:56:21.365Z,20.79
2023-05-21T04:57:20.220Z,20.79
2023-05-21T04:58:21.236Z,20.79
2023-05-21T04:59:21.266Z,20.76
2023-05-21T05:00:20.343Z,20.82
2023-05-21T05:01:21.472Z,20.80
2023-05-21T05:02:21.536Z,20.79
2023-05-21T05:03:20.623Z,20.76
2023-05-21T05:04:20.421Z,20.80
2023-05-21T05:05:21.386Z,20.79
2023-05-21T05:06:20.491Z,20.79
2023-05-21T05:07:21.444Z,20.79
2023-05-21T05:08:20.439Z,20.82
2023-05-21T05:09:20.585Z,20.79
2023-05-21T05:10:20.712Z,20.80
2023-05-21T05:11:20.633Z,20.80
2023-05-21T05:12:20.738Z,20.77
2023-05-21T05:13:21.603Z,20.80
2023-05-21T05:14:20.769Z,20.79
2023-05-21T05:15:21.749Z,20.79
2023-05-21T05:16:20.704Z,20.83
2023-05-21T05:17:20.607Z,20.82
2023-05-21T05:18:20.647Z,20.82
2023-05-21T05:19:20.778Z,20.83
2023-05-21T05:20:20.764Z,20.83
2023-05-21T05:21:21.693Z,20.83
2023-05-21T05:22:21.684Z,20.84
2023-05-21T05:23:21.826Z,20.80
2023-05-21T05:24:21.718Z,20.83
2023-05-21T05:25:20.784Z,20.83
2023-05-21T05:26:20.981Z,20.83
2023-05-21T05:27:21.873Z,20.82
2023-05-21T05:28:22.078Z,20.84
2023-05-21T05:29:20.791Z,20.83
2023-05-21T05:30:20.926Z,20.83
2023-05-21T05:31:20.932Z,20.82
2023-05-21T05:32:21.866Z,20.84
2023-05-21T05:33:20.869Z,20.84
2023-05-21T05:34:22.104Z,20.84
2023-05-21T05:35:20.901Z,20.86
2023-05-21T05:36:20.952Z,20.84
2023-05-21T05:37:22.127Z,20.86
2023-05-21T05:38:21.129Z,20.86
2023-05-21T05:39:20.978Z,20.87
2023-05-21T05:40:22.040Z,20.86
2023-05-21T05:41:22.009Z,20.90
2023-05-21T05:42:22.204Z,20.87
2023-05-21T05:43:22.083Z,20.90
2023-05-21T05:44:22.049Z,20.90
2023-05-21T05:45:22.065Z,20.89
2023-05-21T05:46:22.157Z,20.89
2023-05-21T05:47:22.099Z,20.89
2023-05-21T05:48:21.122Z,20.87
2023-05-21T05:49:21.159Z,20.89
2023-05-21T05:50:21.292Z,20.90
2023-05-21T05:51:22.370Z,20.90
2023-05-21T05:52:21.192Z,20.90
2023-05-21T05:53:21.251Z,20.95
2023-05-21T05:54:22.317Z,20.94
2023-05-21T05:55:22.347Z,20.97
2023-05-21T05:56:21.279Z,20.94
2023-05-21T05:57:21.236Z,20.95
2023-05-21T05:58:22.341Z,20.97
2023-05-21T05:59:22.433Z,20.95
2023-05-21T06:00:21.300Z,20.98
2023-05-21T06:01:22.236Z,20.95
2023-05-21T06:02:22.331Z,20.98
2023-05-21T06:03:21.364Z,20.97
2023-05-21T06:04:21.273Z,20.95
2023-05-21T06:05:22.363Z,20.97
2023-05-21T06:06:21.408Z,20.98
2023-05-21T06:07:21.278Z,20.98
2023-05-21T06:08:22.408Z,21.00
2023-05-21T06:09:21.293Z,21.00
2023-05-21T06:10:22.308Z,20.98
2023-05-21T06:11:22.505Z,20.98
2023-05-21T06:12:22.485Z,21.00
2023-05-21T06:13:21.299Z,21.03
2023-05-21T06:14:21.305Z,21.01
2023-05-21T06:15:22.317Z,21.03
2023-05-21T06:16:22.374Z,21.04
2023-05-21T06:17:21.473Z,21.04
2023-05-21T06:18:21.546Z,21.04
2023-05-21T06:19:22.513Z,21.07
2023-05-21T06:20:22.320Z,21.07
2023-05-21T06:21:22.292Z,21.05
2023-05-21T06:22:22.449Z,21.08
2023-05-21T06:23:21.290Z,21.08
2023-05-21T06:24:22.286Z,21.08
2023-05-21T06:25:21.273Z,21.10
2023-05-21T06:26:21.400Z,21.11
2023-05-21T06:27:21.290Z,21.13
2023-05-21T06:28:21.324Z,21.14
2023-05-21T06:29:21.332Z,21.15
2023-05-21T06:30:21.289Z,21.14
2023-05-21T06:31:22.398Z,21.15
2023-05-21T06:32:21.361Z,21.21
2023-05-21T06:33:22.341Z,21.18
2023-05-21T06:34:21.331Z,21.20
2023-05-21T06:35:21.296Z,21.21
2023-05-21T06:36:21.399Z,21.24
2023-05-21T06:37:21.293Z,21.22
2023-05-21T06:38:22.316Z,21.24
2023-05-21T06:39:21.497Z,21.27
2023-05-21T06:40:21.279Z,21.25
2023-05-21T06:41:21.297Z,21.27
2023-05-21T06:42:21.365Z,21.28
2023-05-21T06:43:21.287Z,21.30
2023-05-21T06:44:22.324Z,21.31
2023-05-21T06:45:21.284Z,21.32
2023-05-21T06:46:22.626Z,21.30
2023-05-21T06:47:22.361Z,21.34
2023-05-21T06:48:22.465Z,21.32
2023-05-21T06:49:21.307Z,21.34
2023-05-21T06:50:22.448Z,21.34
2023-05-21T06:51:21.396Z,21.35
2023-05-21T06:52:22.490Z,21.34
2023-05-21T06:53:21.377Z,21.35
2023-05-21T06:54:21.535Z,21.37
2023-05-21T06:55:21.363Z,21.37
2023-05-21T06:56:21.304Z,21.38
2023-05-21T06:57:21.310Z,21.38
2023-05-21T06:58:21.366Z,21.38
2023-05-21T06:59:22.495Z,21.40
2023-05-21T07:00:22.308Z,21.41
2023-05-21T07:01:22.502Z,21.42
2023-05-21T07:02:21.460Z,21.41
2023-05-21T07:03:21.572Z,21.41
2023-05-21T07:04:21.385Z,21.41
2023-05-21T07:05:21.337Z,21.42
2023-05-21T07:06:22.347Z,21.44
2023-05-21T07:07:21.479Z,21.42
2023-05-21T07:08:22.332Z,21.46
2023-05-21T07:09:22.373Z,21.45
2023-05-21T07:10:22.553Z,21.44
2023-05-21T07:11:22.601Z,21.46
2023-05-21T07:12:21.457Z,21.46
2023-05-21T07:13:21.376Z,21.48
2023-05-21T07:14:21.386Z,21.46
2023-05-21T07:15:21.378Z,21.48
2023-05-21T07:16:22.594Z,21.49
2023-05-21T07:17:21.584Z,21.48
2023-05-21T07:18:21.392Z,21.48
2023-05-21T07:19:21.629Z,21.52
2023-05-21T07:20:21.408Z,21.51
2023-05-21T07:21:21.409Z,21.52
2023-05-21T07:22:21.398Z,21.53
2023-05-21T07:23:21.493Z,21.55
2023-05-21T07:24:22.677Z,21.53
2023-05-21T07:25:21.516Z,21.53
2023-05-21T07:26:21.462Z,21.56
2023-05-21T07:27:25.648Z,21.55
2023-05-21T07:28:21.399Z,21.56
2023-05-21T07:29:21.608Z,21.56
2023-05-21T07:30:22.423Z,21.56
2023-05-21T07:31:21.518Z,21.58
2023-05-21T07:32:21.678Z,21.58
2023-05-21T07:33:21.336Z,21.58
2023-05-21T07:34:21.525Z,21.58
2023-05-21T07:35:22.524Z,21.60
2023-05-21T07:36:21.378Z,21.59
2023-05-21T07:37:21.349Z,21.59
2023-05-21T07:38:21.331Z,21.59
2023-05-21T07:39:21.431Z,21.62
2023-05-21T07:40:22.363Z,21.60
2023-05-21T07:41:22.551Z,21.63
2023-05-21T07:42:22.445Z,21.63
2023-05-21T07:43:21.516Z,21.62
2023-05-21T07:44:21.307Z,21.65
2023-05-21T07:45:21.469Z,21.66
2023-05-21T07:46:22.330Z,21.63
2023-05-21T07:47:22.538Z,21.65
2023-05-21T07:48:21.416Z,21.65
2023-05-21T07:49:21.253Z,21.65
2023-05-21T07:50:21.424Z,21.65
2023-05-21T07:51:22.463Z,21.68
2023-05-21T07:52:22.270Z,21.66
2023-05-21T07:53:21.260Z,21.68
2023-05-21T07:54:21.346Z,21.68
2023-05-21T07:55:21.248Z,21.66
2023-05-21T07:56:22.197Z,21.66
2023-05-21T07:57:21.208Z,21.68
2023-05-21T07:58:21.208Z,21.68
2023-05-21T07:59:22.190Z,21.69
2023-05-21T08:00:22.424Z,21.72
2023-05-21T08:01:21.301Z,21.69
2023-05-21T08:02:22.503Z,21.70
2023-05-21T08:03:22.534Z,21.70
2023-05-21T08:04:22.779Z,21.72
2023-05-21T08:05:22.640Z,21.70
2023-05-21T08:06:22.509Z,21.69
2023-05-21T08:07:21.712Z,21.72
2023-05-21T08:08:22.448Z,21.73
2023-05-21T08:09:21.470Z,21.73
2023-05-21T08:10:22.615Z,21.70
2023-05-21T08:11:22.512Z,21.73
2023-05-21T08:12:21.553Z,21.72
2023-05-21T08:13:22.593Z,21.75
2023-05-21T08:14:22.914Z,21.75
2023-05-21T08:15:21.785Z,21.76
2023-05-21T08:16:22.878Z,21.78
2023-05-21T08:17:21.889Z,21.79
2023-05-21T08:18:21.889Z,21.78
2023-05-21T08:19:22.754Z,21.76
2023-05-21T08:20:21.835Z,21.78
2023-05-21T08:21:21.836Z,21.79
2023-05-21T08:22:22.865Z,21.79
2023-05-21T08:23:21.858Z,21.79
2023-05-21T08:24:22.803Z,21.78
2023-05-21T08:25:21.873Z,21.80
2023-05-21T08:26:22.842Z,21.82
2023-05-21T08:27:22.890Z,21.80
2023-05-21T08:28:22.910Z,21.82
2023-05-21T08:29:22.898Z,21.82
2023-05-21T08:30:22.925Z,21.82
2023-05-21T08:31:23.015Z,21.83
2023-05-21T08:32:23.088Z,21.83
2023-05-21T08:33:22.126Z,21.82
2023-05-21T08:34:23.295Z,21.83
2023-05-21T08:35:23.191Z,21.82
2023-05-21T08:36:22.352Z,21.83
2023-05-21T08:37:22.348Z,21.85
2023-05-21T08:38:23.295Z,21.85
2023-05-21T08:39:22.417Z,21.86
2023-05-21T08:40:23.419Z,21.86
2023-05-21T08:41:23.483Z,21.85
2023-05-21T08:42:35.639Z,21.85
2023-05-21T08:43:23.570Z,21.85
2023-05-21T08:44:22.534Z,21.86
2023-05-21T08:45:23.573Z,21.86
2023-05-21T08:46:22.558Z,21.87
2023-05-21T08:47:23.514Z,21.86
2023-05-21T08:48:23.553Z,21.87
2023-05-21T08:49:25.049Z,21.92
2023-05-21T08:50:22.491Z,21.89
2023-05-21T08:51:22.475Z,21.89
2023-05-21T08:52:22.527Z,21.90
2023-05-21T08:53:28.649Z,21.90
2023-05-21T08:54:23.475Z,21.90
2023-05-21T08:55:22.501Z,21.90
2023-05-21T08:56:23.421Z,21.92
2023-05-21T08:57:22.447Z,21.93
2023-05-21T08:58:22.589Z,21.92
2023-05-21T08:59:23.651Z,21.93
2023-05-21T09:00:23.478Z,21.93
2023-05-21T09:01:26.310Z,21.93
2023-05-21T09:02:22.545Z,21.96
2023-05-21T09:03:22.590Z,21.95
2023-05-21T09:04:22.616Z,21.95
2023-05-21T09:05:22.570Z,21.93
2023-05-21T09:06:22.397Z,21.95
2023-05-21T09:07:23.356Z,21.96
2023-05-21T09:08:22.571Z,21.95
2023-05-21T09:09:23.364Z,21.93
2023-05-21T09:10:22.415Z,21.96
2023-05-21T09:11:23.493Z,21.96
2023-05-21T09:12:23.456Z,21.96
2023-05-21T09:13:22.324Z,21.99
2023-05-21T09:14:22.535Z,21.99
2023-05-21T09:15:23.482Z,21.99
2023-05-21T09:16:22.450Z,21.99
2023-05-21T09:17:23.586Z,21.97
2023-05-21T09:18:22.417Z,21.97
2023-05-21T09:19:22.389Z,22.00
2023-05-21T09:20:22.269Z,21.97
2023-05-21T09:21:23.352Z,22.00
2023-05-21T09:22:23.552Z,22.00
2023-05-21T09:23:22.462Z,22.01
2023-05-21T09:24:22.505Z,22.00
2023-05-21T09:25:22.756Z,21.99
2023-05-21T09:26:23.639Z,21.99
2023-05-21T09:27:22.917Z,22.03
2023-05-21T09:28:23.726Z,22.03
2023-05-21T09:29:23.878Z,22.01
2023-05-21T09:30:26.668Z,22.01
2023-05-21T09:31:23.925Z,22.04
2023-05-21T09:32:22.856Z,22.03
2023-05-21T09:33:23.875Z,22.03
2023-05-21T09:34:22.804Z,22.06
2023-05-21T09:35:24.131Z,22.04
2023-05-21T09:36:22.773Z,22.04
2023-05-21T09:37:27.489Z,22.03
2023-05-21T09:38:23.920Z,22.01
2023-05-21T09:39:23.788Z,22.04
2023-05-21T09:40:22.910Z,22.06
2023-05-21T09:41:22.770Z,22.04
2023-05-21T09:42:22.774Z,22.04
2023-05-21T09:43:22.885Z,22.07
2023-05-21T09:44:22.772Z,22.04
2023-05-21T09:45:22.723Z,22.06
2023-05-21T09:46:22.901Z,22.06
2023-05-21T09:47:22.867Z,22.07
2023-05-21T09:48:23.891Z,22.07
2023-05-21T09:49:22.910Z,22.08
2023-05-21T09:50:22.961Z,22.07
2023-05-21T09:51:24.092Z,22.07
2023-05-21T09:52:24.065Z,22.07
2023-05-21T09:53:23.143Z,22.06
2023-05-21T09:54:23.382Z,22.07
2023-05-21T09:55:23.244Z,22.11
2023-05-21T09:56:23.511Z,22.06
2023-05-21T09:57:23.336Z,22.11
2023-05-21T09:58:23.392Z,22.10
2023-05-21T09:59:23.657Z,22.13
2023-05-21T10:00:23.502Z,22.10
2023-05-21T10:01:23.617Z,22.11
2023-05-21T10:02:23.892Z,22.10
2023-05-21T10:03:24.711Z,22.10
2023-05-21T10:04:23.836Z,22.11
2023-05-21T10:05:23.746Z,22.13
2023-05-21T10:06:24.938Z,22.10
2023-05-21T10:07:23.883Z,22.13
2023-05-21T10:08:24.892Z,22.13
2023-05-21T10:09:24.951Z,22.16
2023-05-21T10:10:24.178Z,22.14
2023-05-21T10:11:24.040Z,22.13
2023-05-21T10:12:24.033Z,22.11
2023-05-21T10:13:24.108Z,22.14
2023-05-21T10:14:24.138Z,22.13
2023-05-21T10:15:24.359Z,22.14
2023-05-21T10:16:24.373Z,22.16
2023-05-21T10:17:25.304Z,22.14
2023-05-21T10:18:24.507Z,22.17
2023-05-21T10:19:27.341Z,22.13
2023-05-21T10:20:25.336Z,22.16
2023-05-21T10:21:25.315Z,22.17
2023-05-21T10:22:24.341Z,22.17
2023-05-21T10:23:24.300Z,22.17
2023-05-21T10:24:25.290Z,22.16
2023-05-21T10:25:24.388Z,22.17
2023-05-21T10:26:24.359Z,22.17
2023-05-21T10:27:24.340Z,22.20
2023-05-21T10:28:25.273Z,22.17
2023-05-21T10:29:24.319Z,22.21
2023-05-21T10:30:25.251Z,22.20
2023-05-21T10:31:25.372Z,22.16
2023-05-21T10:32:25.346Z,22.18
2023-05-21T10:33:24.257Z,22.16
2023-05-21T10:34:25.270Z,22.18
2023-05-21T10:35:25.346Z,22.21
2023-05-21T10:36:25.217Z,22.18
2023-05-21T10:37:26.072Z,22.20
2023-05-21T10:38:25.186Z,22.20
2023-05-21T10:39:24.237Z,22.20
2023-05-21T10:40:25.413Z,22.21
2023-05-21T10:41:24.306Z,22.21
2023-05-21T10:42:25.191Z,22.21
2023-05-21T10:43:25.170Z,22.23
2023-05-21T10:44:25.211Z,22.24
2023-05-21T10:45:25.291Z,22.23
2023-05-21T10:46:24.206Z,22.20
2023-05-21T10:47:24.246Z,22.25
2023-05-21T10:48:24.121Z,22.23
2023-05-21T10:49:24.154Z,22.25
2023-05-21T10:50:25.124Z,22.27
2023-05-21T10:51:24.308Z,22.21
2023-05-21T10:52:24.321Z,22.24
2023-05-21T10:53:25.221Z,22.24
2023-05-21T10:54:25.258Z,22.24
2023-05-21T10:55:25.378Z,22.25
2023-05-21T10:56:24.334Z,22.24
2023-05-21T10:57:24.520Z,22.23
2023-05-21T10:58:24.424Z,22.25
2023-05-21T10:59:24.504Z,22.25
2023-05-21T11:00:24.477Z,22.27
2023-05-21T11:01:24.525Z,22.27
2023-05-21T11:02:25.655Z,22.25
2023-05-21T11:03:25.721Z,22.25
2023-05-21T11:04:25.729Z,22.28
2023-05-21T11:05:24.702Z,22.25
2023-05-21T11:06:24.803Z,22.25
2023-05-21T11:07:25.692Z,22.24
2023-05-21T11:08:24.920Z,22.27
2023-05-21T11:09:25.748Z,22.27
2023-05-21T11:10:25.994Z,22.28
2023-05-21T11:11:24.841Z,22.27
2023-05-21T11:12:25.828Z,22.27
2023-05-21T11:13:24.863Z,22.27
2023-05-21T11:14:24.900Z,22.30
2023-05-21T11:15:25.977Z,22.27
2023-05-21T11:16:26.038Z,22.24
2023-05-21T11:17:25.069Z,22.27
2023-05-21T11:18:24.994Z,22.28
2023-05-21T11:19:26.094Z,22.25
2023-05-21T11:20:25.059Z,22.27
2023-05-21T11:21:25.074Z,22.27
2023-05-21T11:22:26.157Z,22.25
2023-05-21T11:23:25.115Z,22.25
2023-05-21T11:24:25.124Z,22.30
2023-05-21T11:25:25.177Z,22.25
2023-05-21T11:26:25.186Z,22.25
2023-05-21T11:27:26.205Z,22.28
2023-05-21T11:28:26.242Z,22.27
2023-05-21T11:29:26.267Z,22.28
2023-05-21T11:30:26.286Z,22.28
2023-05-21T11:31:25.488Z,22.28
2023-05-21T11:32:26.506Z,22.28
2023-05-21T11:33:26.362Z,22.30
2023-05-21T11:34:26.445Z,22.30
2023-05-21T11:35:25.753Z,22.28
2023-05-21T11:36:25.659Z,22.31
2023-05-21T11:37:26.669Z,22.28
2023-05-21T11:38:25.748Z,22.31
2023-05-21T11:39:25.703Z,22.31
2023-05-21T11:40:26.671Z,22.31
2023-05-21T11:41:26.557Z,22.27
2023-05-21T11:42:26.841Z,22.30
2023-05-21T11:43:26.785Z,22.27
2023-05-21T11:44:25.662Z,22.30
2023-05-21T11:45:25.646Z,22.30
2023-05-21T11:46:25.916Z,22.30
2023-05-21T11:47:26.795Z,22.28
2023-05-21T11:48:27.698Z,22.28
2023-05-21T11:49:26.968Z,22.28
2023-05-21T11:50:26.055Z,22.31
2023-05-21T11:51:26.064Z,22.31
2023-05-21T11:52:26.104Z,22.28
2023-05-21T11:53:27.092Z,22.28
2023-05-21T11:54:26.159Z,22.27
2023-05-21T11:55:26.187Z,22.28
2023-05-21T11:56:27.214Z,22.28
2023-05-21T11:57:26.334Z,22.27
2023-05-21T11:58:26.185Z,22.27
2023-05-21T11:59:27.246Z,22.31
2023-05-21T12:00:27.266Z,22.30
2023-05-21T12:01:26.288Z,22.30
2023-05-21T12:02:27.385Z,22.30
2023-05-21T12:03:26.371Z,22.28
2023-05-21T12:04:27.379Z,22.30
2023-05-21T12:05:26.367Z,22.30
2023-05-21T12:06:26.592Z,22.30
2023-05-21T12:07:26.498Z,22.30
2023-05-21T12:08:26.463Z,22.30
2023-05-21T12:09:26.527Z,22.30
2023-05-21T12:10:26.457Z,22.31
2023-05-21T12:11:27.495Z,22.30
2023-05-21T12:13:26.548Z,22.31
2023-05-21T12:14:26.682Z,22.33
2023-05-21T12:15:26.617Z,22.34
2023-05-21T12:16:26.787Z,22.33
2023-05-21T12:17:26.823Z,22.31
2023-05-21T12:18:26.831Z,22.33
2023-05-21T12:19:27.974Z,22.30
2023-05-21T12:20:26.717Z,22.35
2023-05-21T12:21:26.913Z,22.30
2023-05-21T12:22:26.903Z,22.33
2023-05-21T12:23:26.781Z,22.31
2023-05-21T12:24:26.749Z,22.33
2023-05-21T12:25:26.795Z,22.31
2023-05-21T12:26:27.886Z,22.31
2023-05-21T12:27:26.962Z,22.30
2023-05-21T12:28:26.986Z,22.31
2023-05-21T12:29:26.875Z,22.31
2023-05-21T12:30:26.896Z,22.33
2023-05-21T12:31:27.016Z,22.31
2023-05-21T12:32:26.937Z,22.33
2023-05-21T12:33:26.963Z,22.33
2023-05-21T12:34:28.048Z,22.31
2023-05-21T12:35:27.086Z,22.30
2023-05-21T12:36:27.142Z,22.28
2023-05-21T12:37:27.190Z,22.30
2023-05-21T12:38:28.178Z,22.33
2023-05-21T12:39:28.209Z,22.33
2023-05-21T12:40:27.135Z,22.34
2023-05-21T12:41:27.107Z,22.31
2023-05-21T12:42:27.291Z,22.33
2023-05-21T12:43:27.234Z,22.34
2023-05-21T12:44:28.189Z,22.30
2023-05-21T12:45:27.214Z,22.30
2023-05-21T12:46:27.262Z,22.33
2023-05-21T12:47:28.468Z,22.30
2023-05-21T12:48:28.400Z,22.30
2023-05-21T12:49:28.458Z,22.31
2023-05-21T12:50:28.384Z,22.33
2023-05-21T12:51:28.333Z,22.31
2023-05-21T12:52:28.493Z,22.33
2023-05-21T12:53:28.359Z,22.31